Time,TemperatureF,DewpointF,PressureIn,WindDirection,WindDirectionDegrees,WindSpeedMPH,WindSpeedGustMPH,Humidity,HourlyPrecipIn,Conditions,Clouds,dailyrainin,SoftwareType,DateUTC
2013-01-03 00:03:00,3.9,-9.1,30.04,WSW,256,1.0,-999.0,54,0.00,,,0.00,Wunderground v.1.15,2013-01-03 05:03:00,
2013-01-03 00:04:00,3.9,-8.7,30.04,WSW,252,1.0,-999.0,55,0.00,,,0.00,Wunderground v.1.15,2013-01-03 05:04:00,
2013-01-03 00:05:00,3.9,-9.1,30.05,South,183,1.0,-999.0,54,0.00,,,0.00,Wunderground v.1.15,2013-01-03 05:05:00,
2013-01-03 00:10:00,3.9,-8.7,30.05,SW,236,1.0,-999.0,55,0.00,,,0.00,Wunderground v.1.15,2013-01-03 05:10:00,
2013-01-03 00:16:00,3.7,-8.9,30.05,NNW,348,0.0,-999.0,55,0.00,,,0.00,Wunderground v.1.15,2013-01-03 05:16:00,
2013-01-03 00:21:00,3.6,-9.0,30.05,East,101,0.0,-999.0,55,0.00,,,0.00,Wunderground v.1.15,2013-01-03 05:21:00,
2013-01-03 00:27:00,3.4,-8.8,30.06,WSW,238,0.0,-999.0,56,0.00,,,0.00,Wunderground v.1.15,2013-01-03 05:27:00,
2013-01-03 00:33:00,3.2,-9.0,30.06,SSW,195,0.0,-999.0,56,0.00,,,0.00,Wunderground v.1.15,2013-01-03 05:33:00,
2013-01-03 00:38:00,3.1,-8.7,30.06,SW,222,1.0,-999.0,57,0.00,,,0.00,Wunderground v.1.15,2013-01-03 05:38:00,
2013-01-03 00:44:00,3.0,-8.8,30.05,NE,39,1.0,-999.0,57,0.00,,,0.00,Wunderground v.1.15,2013-01-03 05:44:00,
2013-01-03 00:50:00,2.9,-8.9,30.06,SSW,212,0.0,-999.0,57,0.00,,,0.00,Wunderground v.1.15,2013-01-03 05:50:00,
2013-01-03 00:56:00,2.9,-8.9,30.06,West,269,1.0,-999.0,57,0.00,,,0.00,Wunderground v.1.15,2013-01-03 05:56:00,
2013-01-03 01:03:00,2.6,-8.8,30.06,West,259,0.0,-999.0,58,0.00,,,0.00,Wunderground v.1.15,2013-01-03 06:03:00,
2013-01-03 01:09:00,2.4,-9.0,30.06,WNW,287,0.0,-999.0,58,0.00,,,0.00,Wunderground v.1.15,2013-01-03 06:09:00,
2013-01-03 01:15:00,2.3,-8.8,30.06,West,270,0.0,-999.0,59,0.00,,,0.00,Wunderground v.1.15,2013-01-03 06:15:00,
2013-01-03 01:20:00,2.1,-8.6,30.06,ENE,63,0.0,-999.0,60,0.00,,,0.00,Wunderground v.1.15,2013-01-03 06:20:00,
2013-01-03 01:25:00,1.6,-8.1,30.06,ENE,64,0.0,-999.0,63,0.00,,,0.00,Wunderground v.1.15,2013-01-03 06:25:00,
2013-01-03 01:30:00,1.1,-7.9,30.06,ENE,64,0.0,-999.0,65,0.00,,,0.00,Wunderground v.1.15,2013-01-03 06:30:00,
2013-01-03 01:36:00,0.7,-8.3,30.06,WNW,294,0.0,-999.0,65,0.00,,,0.00,Wunderground v.1.15,2013-01-03 06:36:00,
2013-01-03 01:41:00,0.8,-8.2,30.06,SSW,198,0.0,-999.0,65,0.00,,,0.00,Wunderground v.1.15,2013-01-03 06:41:00,
2013-01-03 01:46:00,1.3,-8.4,30.07,SSW,208,0.0,-999.0,63,0.00,,,0.00,Wunderground v.1.15,2013-01-03 06:46:00,
2013-01-03 01:52:00,1.4,-8.0,30.08,SW,226,0.0,-999.0,64,0.00,,,0.00,Wunderground v.1.15,2013-01-03 06:52:00,
2013-01-03 01:57:00,1.4,-8.0,30.08,SW,224,0.0,-999.0,64,0.00,,,0.00,Wunderground v.1.15,2013-01-03 06:57:00,
2013-01-03 02:04:00,1.5,-7.9,30.07,NNE,32,0.0,-999.0,64,0.00,,,0.00,Wunderground v.1.15,2013-01-03 07:04:00,
2013-01-03 02:09:00,1.7,-7.7,30.08,SSE,151,0.0,-999.0,64,0.00,,,0.00,Wunderground v.1.15,2013-01-03 07:09:00,
2013-01-03 02:15:00,1.7,-7.7,30.08,South,180,0.0,-999.0,64,0.00,,,0.00,Wunderground v.1.15,2013-01-03 07:15:00,
2013-01-03 02:20:00,1.7,-7.4,30.08,SW,219,0.0,-999.0,65,0.00,,,0.00,Wunderground v.1.15,2013-01-03 07:20:00,
2013-01-03 02:25:00,1.4,-7.3,30.08,SW,231,0.0,-999.0,66,0.00,,,0.00,Wunderground v.1.15,2013-01-03 07:25:00,
2013-01-03 02:31:00,1.2,-7.5,30.08,NE,42,1.0,-999.0,66,0.00,,,0.00,Wunderground v.1.15,2013-01-03 07:31:00,
2013-01-03 02:37:00,1.0,-7.4,30.08,South,179,1.0,-999.0,67,0.00,,,0.00,Wunderground v.1.15,2013-01-03 07:37:00,
2013-01-03 02:43:00,0.8,-7.6,30.08,SW,226,0.0,-999.0,67,0.00,,,0.00,Wunderground v.1.15,2013-01-03 07:43:00,
2013-01-03 02:48:00,0.9,-7.5,30.08,North,359,0.0,-999.0,67,0.00,,,0.00,Wunderground v.1.15,2013-01-03 07:48:00,
2013-01-03 02:54:00,0.7,-7.7,30.08,WNW,302,0.0,-999.0,67,0.00,,,0.00,Wunderground v.1.15,2013-01-03 07:54:00,
2013-01-03 03:00:00,0.6,-7.8,30.08,SW,232,0.0,-999.0,67,0.00,,,0.00,Wunderground v.1.15,2013-01-03 08:00:00,
2013-01-03 03:06:00,0.8,-7.9,30.08,SSW,205,0.0,-999.0,66,0.00,,,0.00,Wunderground v.1.15,2013-01-03 08:06:00,
2013-01-03 03:11:00,0.7,-8.0,30.08,SSW,200,0.0,-999.0,66,0.00,,,0.00,Wunderground v.1.15,2013-01-03 08:11:00,
2013-01-03 03:17:00,0.4,-8.0,30.08,SSW,200,0.0,-999.0,67,0.00,,,0.00,Wunderground v.1.15,2013-01-03 08:17:00,
2013-01-03 03:22:00,0.0,-8.1,30.08,SSW,200,0.0,-999.0,68,0.00,,,0.00,Wunderground v.1.15,2013-01-03 08:22:00,
2013-01-03 03:28:00,0.2,-7.9,30.07,West,263,0.0,-999.0,68,0.00,,,0.00,Wunderground v.1.15,2013-01-03 08:28:00,
2013-01-03 03:34:00,0.6,-7.8,30.07,WSW,250,0.0,-999.0,67,0.00,,,0.00,Wunderground v.1.15,2013-01-03 08:34:00,
2013-01-03 03:39:00,1.2,-7.8,30.07,SSW,212,0.0,-999.0,65,0.00,,,0.00,Wunderground v.1.15,2013-01-03 08:39:00,
2013-01-03 03:45:00,1.3,-7.7,30.08,South,190,0.0,-999.0,65,0.00,,,0.00,Wunderground v.1.15,2013-01-03 08:45:00,
2013-01-03 03:51:00,0.9,-8.1,30.07,SSW,194,0.0,-999.0,65,0.00,,,0.00,Wunderground v.1.15,2013-01-03 08:51:00,
2013-01-03 03:57:00,0.8,-7.9,30.07,ESE,108,0.0,-999.0,66,0.00,,,0.00,Wunderground v.1.15,2013-01-03 08:57:00,
2013-01-03 04:03:00,0.8,-7.9,30.07,WSW,258,0.0,-999.0,66,0.00,,,0.00,Wunderground v.1.15,2013-01-03 09:03:00,
2013-01-03 04:08:00,1.1,-7.9,30.07,SW,217,0.0,-999.0,65,0.00,,,0.00,Wunderground v.1.15,2013-01-03 09:08:00,
2013-01-03 04:14:00,1.3,-8.1,30.07,SSW,210,0.0,-999.0,64,0.00,,,0.00,Wunderground v.1.15,2013-01-03 09:14:00,
2013-01-03 04:20:00,1.2,-8.2,30.07,SW,214,0.0,-999.0,64,0.00,,,0.00,Wunderground v.1.15,2013-01-03 09:20:00,
2013-01-03 04:25:00,0.9,-7.8,30.07,SW,225,0.0,-999.0,66,0.00,,,0.00,Wunderground v.1.15,2013-01-03 09:25:00,
2013-01-03 04:31:00,0.4,-8.0,30.07,WSW,245,0.0,-999.0,67,0.00,,,0.00,Wunderground v.1.15,2013-01-03 09:31:00,
2013-01-03 04:36:00,0.2,-7.9,30.07,WNW,284,0.0,-999.0,68,0.00,,,0.00,Wunderground v.1.15,2013-01-03 09:36:00,
2013-01-03 04:42:00,-0.2,-8.0,30.07,West,277,0.0,-999.0,69,0.00,,,0.00,Wunderground v.1.15,2013-01-03 09:42:00,
2013-01-03 04:47:00,-0.5,-8.2,30.07,West,277,0.0,-999.0,69,0.00,,,0.00,Wunderground v.1.15,2013-01-03 09:47:00,
2013-01-03 04:53:00,-0.9,-8.3,30.07,West,277,0.0,-999.0,70,0.00,,,0.00,Wunderground v.1.15,2013-01-03 09:53:00,
2013-01-03 04:58:00,-1.1,-8.0,30.07,West,277,0.0,-999.0,72,0.00,,,0.00,Wunderground v.1.15,2013-01-03 09:58:00,
2013-01-03 05:03:00,-1.4,-8.2,30.07,West,276,0.0,-999.0,72,0.00,,,0.00,Wunderground v.1.15,2013-01-03 10:03:00,
2013-01-03 05:09:00,-1.6,-7.9,30.07,West,277,0.0,-999.0,74,0.00,,,0.00,Wunderground v.1.15,2013-01-03 10:09:00,
2013-01-03 05:14:00,-1.9,-8.2,30.07,West,276,0.0,-999.0,74,0.00,,,0.00,Wunderground v.1.15,2013-01-03 10:14:00,
2013-01-03 05:20:00,-2.1,-8.4,30.07,SW,219,0.0,-999.0,74,0.00,,,0.00,Wunderground v.1.15,2013-01-03 10:20:00,
2013-01-03 05:26:00,-2.1,-8.4,30.07,SW,226,0.0,-999.0,74,0.00,,,0.00,Wunderground v.1.15,2013-01-03 10:26:00,
2013-01-03 05:31:00,-2.2,-8.7,30.07,SW,226,0.0,-999.0,73,0.00,,,0.00,Wunderground v.1.15,2013-01-03 10:31:00,
2013-01-03 05:36:00,-2.4,-8.7,30.07,SW,226,0.0,-999.0,74,0.00,,,0.00,Wunderground v.1.15,2013-01-03 10:36:00,
2013-01-03 05:41:00,-2.5,-8.5,30.07,SW,231,0.0,-999.0,75,0.00,,,0.00,Wunderground v.1.15,2013-01-03 10:41:00,
2013-01-03 05:47:00,-2.6,-8.3,30.07,SW,231,0.0,-999.0,76,0.00,,,0.00,Wunderground v.1.15,2013-01-03 10:47:00,
2013-01-03 05:52:00,-2.5,-8.2,30.07,SW,231,0.0,-999.0,76,0.00,,,0.00,Wunderground v.1.15,2013-01-03 10:52:00,
2013-01-03 05:57:00,-2.7,-8.4,30.07,SW,231,0.0,-999.0,76,0.00,,,0.00,Wunderground v.1.15,2013-01-03 10:57:00,
2013-01-03 06:03:00,-3.1,-8.8,30.07,SW,231,0.0,-999.0,76,0.00,,,0.00,Wunderground v.1.15,2013-01-03 11:03:00,
2013-01-03 06:09:00,-3.0,-8.4,30.07,SW,230,0.0,-999.0,77,0.00,,,0.00,Wunderground v.1.15,2013-01-03 11:09:00,
2013-01-03 06:14:00,-3.0,-8.7,30.07,SW,231,0.0,-999.0,76,0.00,,,0.00,Wunderground v.1.15,2013-01-03 11:14:00,
2013-01-03 06:20:00,-3.0,-8.4,30.07,SW,236,0.0,-999.0,77,0.00,,,0.00,Wunderground v.1.15,2013-01-03 11:20:00,
2013-01-03 06:26:00,-2.7,-8.4,30.07,SW,236,0.0,-999.0,76,0.00,,,0.00,Wunderground v.1.15,2013-01-03 11:26:00,
2013-01-03 06:31:00,-2.8,-8.5,30.07,SW,236,0.0,-999.0,76,0.00,,,0.00,Wunderground v.1.15,2013-01-03 11:31:00,
2013-01-03 06:36:00,-2.9,-8.3,30.08,SW,236,0.0,-999.0,77,0.00,,,0.00,Wunderground v.1.15,2013-01-03 11:36:00,
2013-01-03 06:42:00,-3.0,-8.4,30.08,SW,236,0.0,-999.0,77,0.00,,,0.00,Wunderground v.1.15,2013-01-03 11:42:00,
2013-01-03 06:48:00,-2.7,-7.9,30.07,SW,236,0.0,-999.0,78,0.00,,,0.00,Wunderground v.1.15,2013-01-03 11:48:00,
2013-01-03 06:53:00,-3.0,-8.4,30.07,SW,236,0.0,-999.0,77,0.00,,,0.00,Wunderground v.1.15,2013-01-03 11:53:00,
2013-01-03 06:58:00,-3.2,-8.4,30.08,SW,236,0.0,-999.0,78,0.00,,,0.00,Wunderground v.1.15,2013-01-03 11:58:00,
2013-01-03 07:03:00,-3.2,-8.4,30.07,SW,236,0.0,-999.0,78,0.00,,,0.00,Wunderground v.1.15,2013-01-03 12:03:00,
2013-01-03 07:09:00,-2.9,-8.1,30.08,WSW,255,0.0,-999.0,78,0.00,,,0.00,Wunderground v.1.15,2013-01-03 12:09:00,
2013-01-03 07:14:00,-2.4,-7.6,30.08,WSW,255,0.0,-999.0,78,0.00,,,0.00,Wunderground v.1.15,2013-01-03 12:14:00,
2013-01-03 07:20:00,-1.9,-7.1,30.09,West,266,0.0,-999.0,78,0.00,,,0.00,Wunderground v.1.15,2013-01-03 12:20:00,
2013-01-03 07:26:00,-2.1,-7.5,30.09,West,266,0.0,-999.0,77,0.00,,,0.00,Wunderground v.1.15,2013-01-03 12:26:00,
2013-01-03 07:32:00,-2.1,-7.3,30.09,West,266,0.0,-999.0,78,0.00,,,0.00,Wunderground v.1.15,2013-01-03 12:32:00,
2013-01-03 07:38:00,-1.6,-7.1,30.09,West,264,0.0,-999.0,77,0.00,,,0.00,Wunderground v.1.15,2013-01-03 12:38:00,
2013-01-03 07:43:00,-1.4,-7.1,30.09,West,264,0.0,-999.0,76,0.00,,,0.00,Wunderground v.1.15,2013-01-03 12:43:00,
2013-01-03 07:48:00,-1.4,-7.1,30.09,West,264,0.0,-999.0,76,0.00,,,0.00,Wunderground v.1.15,2013-01-03 12:48:00,
2013-01-03 07:54:00,-0.7,-6.2,30.09,West,266,0.0,-999.0,77,0.00,,,0.00,Wunderground v.1.15,2013-01-03 12:54:00,
2013-01-03 08:00:00,-0.3,-6.3,30.09,NE,51,0.0,-999.0,75,0.00,,,0.00,Wunderground v.1.15,2013-01-03 13:00:00,
2013-01-03 08:05:00,-0.4,-6.4,30.09,NE,51,0.0,-999.0,75,0.00,,,0.00,Wunderground v.1.15,2013-01-03 13:05:00,
2013-01-03 08:11:00,1.3,-5.3,30.09,NNW,345,0.0,-999.0,73,0.00,,,0.00,Wunderground v.1.15,2013-01-03 13:11:00,
2013-01-03 08:16:00,2.6,-5.0,30.09,NE,53,0.0,-999.0,70,0.00,,,0.00,Wunderground v.1.15,2013-01-03 13:16:00,
2013-01-03 08:21:00,3.4,-4.8,30.09,WNW,291,0.0,-999.0,68,0.00,,,0.00,Wunderground v.1.15,2013-01-03 13:21:00,
2013-01-03 08:27:00,4.1,-4.4,30.09,West,276,0.0,-999.0,67,0.00,,,0.00,Wunderground v.1.15,2013-01-03 13:27:00,
2013-01-03 08:32:00,5.2,-4.0,30.09,WSW,245,0.0,-999.0,65,0.00,,,0.00,Wunderground v.1.15,2013-01-03 13:32:00,
2013-01-03 08:38:00,6.5,-3.4,30.09,NE,39,0.0,-999.0,63,0.00,,,0.00,Wunderground v.1.15,2013-01-03 13:38:00,
2013-01-03 08:44:00,7.4,-3.6,30.09,SE,125,0.0,-999.0,60,0.00,,,0.00,Wunderground v.1.15,2013-01-03 13:44:00,
2013-01-03 08:50:00,8.4,-3.0,30.09,WNW,285,0.0,-999.0,59,0.00,,,0.00,Wunderground v.1.15,2013-01-03 13:50:00,
2013-01-03 08:55:00,8.7,-3.4,30.09,NW,308,1.0,-999.0,57,0.00,,,0.00,Wunderground v.1.15,2013-01-03 13:55:00,
2013-01-03 09:03:00,9.4,-3.2,30.09,NNE,28,1.0,-999.0,56,0.00,,,0.00,Wunderground v.1.15,2013-01-03 14:03:00,
2013-01-03 09:09:00,9.9,-3.1,30.08,NNE,30,1.0,-999.0,55,0.00,,,0.00,Wunderground v.1.15,2013-01-03 14:09:00,
2013-01-03 09:15:00,9.9,-3.1,30.08,NE,42,2.0,-999.0,55,0.00,,,0.00,Wunderground v.1.15,2013-01-03 14:15:00,
2013-01-03 09:20:00,10.2,-2.8,30.08,West,276,2.0,-999.0,55,0.00,,,0.00,Wunderground v.1.15,2013-01-03 14:20:00,
2013-01-03 09:25:00,10.5,-2.9,30.07,ESE,114,1.0,-999.0,54,0.00,,,0.00,Wunderground v.1.15,2013-01-03 14:25:00,
2013-01-03 09:30:00,10.6,-2.8,30.07,SW,231,1.0,-999.0,54,0.00,,,0.00,Wunderground v.1.15,2013-01-03 14:30:00,
2013-01-03 09:36:00,11.0,-2.4,30.07,NE,49,1.0,-999.0,54,0.00,,,0.00,Wunderground v.1.15,2013-01-03 14:36:00,
2013-01-03 09:42:00,11.5,-2.3,30.07,NNE,31,1.0,-999.0,53,0.00,,,0.00,Wunderground v.1.15,2013-01-03 14:42:00,
2013-01-03 09:47:00,11.6,-2.7,30.06,ENE,75,1.0,-999.0,52,0.00,,,0.00,Wunderground v.1.15,2013-01-03 14:47:00,
2013-01-03 09:53:00,11.9,-2.4,30.06,NE,36,2.0,-999.0,52,0.00,,,0.00,Wunderground v.1.15,2013-01-03 14:53:00,
2013-01-03 09:59:00,12.4,-1.9,30.06,NNE,25,2.0,-999.0,52,0.00,,,0.00,Wunderground v.1.15,2013-01-03 14:59:00,
2013-01-03 10:04:00,13.0,-1.8,30.06,SW,229,2.0,-999.0,51,0.00,,,0.00,Wunderground v.1.15,2013-01-03 15:04:00,
2013-01-03 10:09:00,13.5,-1.7,30.07,North,8,2.0,-999.0,50,0.00,,,0.00,Wunderground v.1.15,2013-01-03 15:09:00,
2013-01-03 10:15:00,14.1,-1.6,30.06,East,93,2.0,-999.0,49,0.00,,,0.00,Wunderground v.1.15,2013-01-03 15:15:00,
2013-01-03 10:20:00,14.6,-1.1,30.06,NE,44,2.0,-999.0,49,0.00,,,0.00,Wunderground v.1.15,2013-01-03 15:20:00,
2013-01-03 10:26:00,14.7,-1.5,30.06,NNE,15,3.0,-999.0,48,0.00,,,0.00,Wunderground v.1.15,2013-01-03 15:26:00,
2013-01-03 10:32:00,15.3,-0.9,30.05,East,80,3.0,-999.0,48,0.00,,,0.00,Wunderground v.1.15,2013-01-03 15:32:00,
2013-01-03 10:38:00,15.9,-0.8,30.05,WNW,285,2.0,-999.0,47,0.00,,,0.00,Wunderground v.1.15,2013-01-03 15:38:00,
2013-01-03 10:44:00,16.4,-0.8,30.05,ENE,65,2.0,-999.0,46,0.00,,,0.00,Wunderground v.1.15,2013-01-03 15:44:00,
2013-01-03 10:50:00,17.0,-0.3,30.05,West,272,2.0,-999.0,46,0.00,,,0.00,Wunderground v.1.15,2013-01-03 15:50:00,
2013-01-03 10:55:00,17.4,-0.4,30.04,West,277,2.0,-999.0,45,0.00,,,0.00,Wunderground v.1.15,2013-01-03 15:55:00,
2013-01-03 11:03:00,17.9,0.1,30.04,NE,53,2.0,-999.0,45,0.00,,,0.00,Wunderground v.1.15,2013-01-03 16:03:00,
2013-01-03 11:09:00,17.7,-0.6,30.04,ENE,65,3.0,-999.0,44,0.00,,,0.00,Wunderground v.1.15,2013-01-03 16:09:00,
2013-01-03 11:14:00,17.8,0.0,30.04,West,280,4.0,-999.0,45,0.00,,,0.00,Wunderground v.1.15,2013-01-03 16:14:00,
2013-01-03 11:19:00,18.1,-0.2,30.03,North,6,3.0,-999.0,44,0.00,,,0.00,Wunderground v.1.15,2013-01-03 16:19:00,
2013-01-03 11:24:00,18.4,0.1,30.03,NNE,28,3.0,-999.0,44,0.00,,,0.00,Wunderground v.1.15,2013-01-03 16:24:00,
2013-01-03 11:30:00,18.7,-0.1,30.03,WSW,243,3.0,-999.0,43,0.00,,,0.00,Wunderground v.1.15,2013-01-03 16:30:00,
2013-01-03 11:36:00,18.9,-0.5,30.03,NNW,340,3.0,-999.0,42,0.00,,,0.00,Wunderground v.1.15,2013-01-03 16:36:00,
2013-01-03 11:42:00,19.5,0.6,30.03,SW,222,2.0,-999.0,43,0.00,,,0.00,Wunderground v.1.15,2013-01-03 16:42:00,
2013-01-03 11:48:00,20.3,0.8,30.03,WNW,298,1.0,-999.0,42,0.00,,,0.00,Wunderground v.1.15,2013-01-03 16:48:00,
2013-01-03 11:53:00,21.1,1.0,30.03,NNE,26,1.0,-999.0,41,0.00,,,0.00,Wunderground v.1.15,2013-01-03 16:53:00,
2013-01-03 11:58:00,21.4,1.3,30.02,SSE,166,1.0,-999.0,41,0.00,,,0.00,Wunderground v.1.15,2013-01-03 16:58:00,
2013-01-03 12:04:00,22.3,2.1,30.02,SSW,201,1.0,-999.0,41,0.00,,,0.00,Wunderground v.1.15,2013-01-03 17:04:00,
2013-01-03 12:09:00,22.5,1.2,30.02,East,82,1.0,-999.0,39,0.00,,,0.00,Wunderground v.1.15,2013-01-03 17:09:00,
2013-01-03 12:14:00,22.1,0.9,30.01,WSW,257,1.0,-999.0,39,0.00,,,0.00,Wunderground v.1.15,2013-01-03 17:14:00,
2013-01-03 12:19:00,21.8,1.1,30.01,NNE,22,2.0,-999.0,40,0.00,,,0.00,Wunderground v.1.15,2013-01-03 17:19:00,
2013-01-03 12:24:00,21.3,0.1,30.01,North,8,2.0,-999.0,39,0.00,,,0.00,Wunderground v.1.15,2013-01-03 17:24:00,
2013-01-03 12:29:00,20.9,0.3,30.00,NNE,30,2.0,-999.0,40,0.00,,,0.00,Wunderground v.1.15,2013-01-03 17:29:00,
2013-01-03 12:35:00,20.9,0.3,30.00,NNE,30,3.0,-999.0,40,0.00,,,0.00,Wunderground v.1.15,2013-01-03 17:35:00,
2013-01-03 12:41:00,21.2,0.6,30.00,ENE,61,2.0,-999.0,40,0.00,,,0.00,Wunderground v.1.15,2013-01-03 17:41:00,
2013-01-03 12:46:00,21.6,1.0,30.00,NNW,340,2.0,-999.0,40,0.00,,,0.00,Wunderground v.1.15,2013-01-03 17:46:00,
2013-01-03 12:52:00,21.7,0.5,30.00,NE,44,2.0,-999.0,39,0.00,,,0.00,Wunderground v.1.15,2013-01-03 17:52:00,
2013-01-03 12:57:00,21.5,-0.2,29.99,NNE,23,3.0,-999.0,38,0.00,,,0.00,Wunderground v.1.15,2013-01-03 17:57:00,
2013-01-03 13:03:00,21.7,1.1,30.00,WNW,283,3.0,-999.0,40,0.00,,,0.00,Wunderground v.1.15,2013-01-03 18:03:00,
2013-01-03 13:09:00,21.8,1.1,30.00,NNE,25,1.0,-999.0,40,0.00,,,0.00,Wunderground v.1.15,2013-01-03 18:09:00,
2013-01-03 13:15:00,22.0,0.8,30.00,NE,45,1.0,-999.0,39,0.00,,,0.00,Wunderground v.1.15,2013-01-03 18:15:00,
2013-01-03 13:21:00,21.7,0.5,30.00,NE,48,2.0,-999.0,39,0.00,,,0.00,Wunderground v.1.15,2013-01-03 18:21:00,
2013-01-03 13:26:00,21.6,1.0,30.00,WSW,249,2.0,-999.0,40,0.00,,,0.00,Wunderground v.1.15,2013-01-03 18:26:00,
2013-01-03 13:32:00,21.8,1.1,30.00,ENE,66,1.0,-999.0,40,0.00,,,0.00,Wunderground v.1.15,2013-01-03 18:32:00,
2013-01-03 13:37:00,21.8,1.1,30.00,NE,41,1.0,-999.0,40,0.00,,,0.00,Wunderground v.1.15,2013-01-03 18:37:00,
2013-01-03 13:43:00,21.6,0.4,30.00,NE,38,2.0,-999.0,39,0.00,,,0.00,Wunderground v.1.15,2013-01-03 18:43:00,
2013-01-03 13:49:00,21.6,1.0,30.00,SW,226,1.0,-999.0,40,0.00,,,0.00,Wunderground v.1.15,2013-01-03 18:49:00,
2013-01-03 13:55:00,21.7,0.5,29.99,NNE,13,1.0,-999.0,39,0.00,,,0.00,Wunderground v.1.15,2013-01-03 18:55:00,
2013-01-03 14:00:00,21.6,1.0,29.99,North,11,2.0,-999.0,40,0.00,,,0.00,Wunderground v.1.15,2013-01-03 19:00:00,
2013-01-03 14:06:00,21.8,0.6,29.99,NW,314,2.0,-999.0,39,0.00,,,0.00,Wunderground v.1.15,2013-01-03 19:06:00,
2013-01-03 14:12:00,21.9,1.2,29.99,NE,39,1.0,-999.0,40,0.00,,,0.00,Wunderground v.1.15,2013-01-03 19:12:00,
2013-01-03 14:18:00,22.0,1.3,29.99,NNE,20,1.0,-999.0,40,0.00,,,0.00,Wunderground v.1.15,2013-01-03 19:18:00,
2013-01-03 14:51:00,21.7,1.6,29.98,SW,215,0.0,-999.0,41,0.00,,,0.00,Wunderground v.1.15,2013-01-03 19:51:00,
2013-01-03 14:56:00,21.7,1.6,29.97,WSW,255,0.0,-999.0,41,0.00,,,0.00,Wunderground v.1.15,2013-01-03 19:56:00,
2013-01-03 15:04:00,21.7,2.1,29.97,WSW,250,0.0,-999.0,42,0.00,,,0.00,Wunderground v.1.15,2013-01-03 20:04:00,
2013-01-03 15:09:00,21.8,1.7,29.97,South,177,0.0,-999.0,41,0.00,,,0.00,Wunderground v.1.15,2013-01-03 20:09:00,
2013-01-03 15:14:00,21.4,0.8,29.97,NNE,27,0.0,-999.0,40,0.00,,,0.00,Wunderground v.1.15,2013-01-03 20:14:00,
2013-01-03 15:19:00,21.3,1.2,29.97,SW,232,0.0,-999.0,41,0.00,,,0.00,Wunderground v.1.15,2013-01-03 20:19:00,
2013-01-03 15:25:00,21.2,1.1,29.97,WSW,240,1.0,-999.0,41,0.00,,,0.00,Wunderground v.1.15,2013-01-03 20:25:00,
2013-01-03 15:31:00,21.0,0.9,29.98,WSW,246,0.0,-999.0,41,0.00,,,0.00,Wunderground v.1.15,2013-01-03 20:31:00,
2013-01-03 15:36:00,20.9,0.9,29.97,SSW,204,0.0,-999.0,41,0.00,,,0.00,Wunderground v.1.15,2013-01-03 20:36:00,
2013-01-03 15:42:00,20.7,1.2,29.97,SW,225,0.0,-999.0,42,0.00,,,0.00,Wunderground v.1.15,2013-01-03 20:42:00,
2013-01-03 15:47:00,20.5,1.0,29.97,SW,229,0.0,-999.0,42,0.00,,,0.00,Wunderground v.1.15,2013-01-03 20:47:00,
2013-01-03 15:52:00,20.2,1.2,29.97,WSW,250,0.0,-999.0,43,0.00,,,0.00,Wunderground v.1.15,2013-01-03 20:52:00,
2013-01-03 15:58:00,19.9,1.0,29.97,SW,233,0.0,-999.0,43,0.00,,,0.00,Wunderground v.1.15,2013-01-03 20:58:00,
2013-01-03 16:03:00,19.5,1.1,29.97,SW,233,0.0,-999.0,44,0.00,,,0.00,Wunderground v.1.15,2013-01-03 21:03:00,
2013-01-03 16:09:00,18.7,1.3,29.97,SW,233,0.0,-999.0,46,0.00,,,0.00,Wunderground v.1.15,2013-01-03 21:09:00,
2013-01-03 16:15:00,17.8,1.4,29.97,SW,233,0.0,-999.0,48,0.00,,,0.00,Wunderground v.1.15,2013-01-03 21:15:00,
2013-01-03 16:21:00,17.1,2.1,29.97,SW,233,0.0,-999.0,51,0.00,,,0.00,Wunderground v.1.15,2013-01-03 21:21:00,
2013-01-03 16:27:00,16.3,1.7,29.97,SW,233,0.0,-999.0,52,0.00,,,0.00,Wunderground v.1.15,2013-01-03 21:27:00,
2013-01-03 16:32:00,15.6,1.5,29.97,SW,233,0.0,-999.0,53,0.00,,,0.00,Wunderground v.1.15,2013-01-03 21:32:00,
2013-01-03 16:38:00,15.1,2.2,29.97,SW,233,0.0,-999.0,56,0.00,,,0.00,Wunderground v.1.15,2013-01-03 21:38:00,
2013-01-03 16:43:00,14.6,2.1,29.98,SW,233,0.0,-999.0,57,0.00,,,0.00,Wunderground v.1.15,2013-01-03 21:43:00,
2013-01-03 16:49:00,14.3,2.2,29.98,SW,233,0.0,-999.0,58,0.00,,,0.00,Wunderground v.1.15,2013-01-03 21:49:00,
2013-01-03 16:54:00,13.7,1.6,29.98,SW,233,0.0,-999.0,58,0.00,,,0.00,Wunderground v.1.15,2013-01-03 21:54:00,
2013-01-03 16:59:00,13.3,2.3,29.98,SW,233,0.0,-999.0,61,0.00,,,0.00,Wunderground v.1.15,2013-01-03 21:59:00,
2013-01-03 17:05:00,13.0,3.1,29.98,SW,233,0.0,-999.0,64,0.00,,,0.00,Wunderground v.1.15,2013-01-03 22:05:00,
2013-01-03 17:11:00,12.9,3.7,29.98,SW,233,0.0,-999.0,66,0.00,,,0.00,Wunderground v.1.15,2013-01-03 22:11:00,
2013-01-03 17:16:00,12.8,3.9,29.98,SW,233,0.0,-999.0,67,0.00,,,0.00,Wunderground v.1.15,2013-01-03 22:16:00,
2013-01-03 17:22:00,13.0,3.8,29.97,SW,233,0.0,-999.0,66,0.00,,,0.00,Wunderground v.1.15,2013-01-03 22:22:00,
2013-01-03 17:27:00,13.2,4.6,29.97,SW,233,0.0,-999.0,68,0.00,,,0.00,Wunderground v.1.15,2013-01-03 22:27:00,
2013-01-03 17:32:00,13.2,4.9,29.97,SW,233,0.0,-999.0,69,0.00,,,0.00,Wunderground v.1.15,2013-01-03 22:32:00,
2013-01-03 17:38:00,13.2,3.6,29.97,SW,233,0.0,-999.0,65,0.00,,,0.00,Wunderground v.1.15,2013-01-03 22:38:00,
2013-01-03 17:43:00,13.4,4.5,29.97,SW,233,0.0,-999.0,67,0.00,,,0.00,Wunderground v.1.15,2013-01-03 22:43:00,
2013-01-03 17:48:00,13.6,4.3,29.97,SW,233,0.0,-999.0,66,0.00,,,0.00,Wunderground v.1.15,2013-01-03 22:48:00,
2013-01-03 17:54:00,13.6,4.0,29.97,SW,233,0.0,-999.0,65,0.00,,,0.00,Wunderground v.1.15,2013-01-03 22:54:00,
2013-01-03 18:00:00,13.9,3.6,29.98,SW,233,0.0,-999.0,63,0.00,,,0.00,Wunderground v.1.15,2013-01-03 23:00:00,
2013-01-03 18:05:00,14.0,3.7,29.99,SW,233,0.0,-999.0,63,0.00,,,0.00,Wunderground v.1.15,2013-01-03 23:05:00,
2013-01-03 18:10:00,13.9,4.3,29.99,SW,231,0.0,-999.0,65,0.00,,,0.00,Wunderground v.1.15,2013-01-03 23:10:00,
2013-01-03 18:15:00,13.3,3.7,29.99,SW,230,0.0,-999.0,65,0.00,,,0.00,Wunderground v.1.15,2013-01-03 23:15:00,
2013-01-03 18:22:00,12.7,3.1,29.98,SW,231,0.0,-999.0,65,0.00,,,0.00,Wunderground v.1.15,2013-01-03 23:22:00,
2013-01-03 18:27:00,12.2,3.0,29.99,SW,231,0.0,-999.0,66,0.00,,,0.00,Wunderground v.1.15,2013-01-03 23:27:00,
2013-01-03 18:32:00,11.9,2.7,29.98,SW,230,0.0,-999.0,66,0.00,,,0.00,Wunderground v.1.15,2013-01-03 23:32:00,
2013-01-03 18:37:00,11.6,2.8,29.99,SW,231,0.0,-999.0,67,0.00,,,0.00,Wunderground v.1.15,2013-01-03 23:37:00,
2013-01-03 18:43:00,11.1,2.6,29.99,SW,231,0.0,-999.0,68,0.00,,,0.00,Wunderground v.1.15,2013-01-03 23:43:00,
2013-01-03 18:48:00,10.4,2.5,29.99,SW,231,0.0,-999.0,70,0.00,,,0.00,Wunderground v.1.15,2013-01-03 23:48:00,
2013-01-03 18:54:00,9.8,2.6,29.99,SW,231,0.0,-999.0,72,0.00,,,0.00,Wunderground v.1.15,2013-01-03 23:54:00,
2013-01-03 19:00:00,9.5,2.3,29.99,SW,231,0.0,-999.0,72,0.00,,,0.00,Wunderground v.1.15,2013-01-04 00:00:00,
2013-01-03 19:05:00,9.1,2.2,29.99,SW,231,0.0,-999.0,73,0.00,,,0.00,Wunderground v.1.15,2013-01-04 00:05:00,
2013-01-03 19:11:00,8.8,1.9,29.99,SW,230,0.0,-999.0,73,0.00,,,0.00,Wunderground v.1.15,2013-01-04 00:11:00,
2013-01-03 19:16:00,8.4,2.1,29.99,SW,231,0.0,-999.0,75,0.00,,,0.00,Wunderground v.1.15,2013-01-04 00:16:00,
2013-01-03 19:21:00,7.8,1.8,29.99,SW,231,0.0,-999.0,76,0.00,,,0.00,Wunderground v.1.15,2013-01-04 00:21:00,
2013-01-03 19:27:00,7.5,1.8,29.99,SW,230,0.0,-999.0,77,0.00,,,0.00,Wunderground v.1.15,2013-01-04 00:27:00,
2013-01-03 19:33:00,7.3,1.6,29.99,SW,231,0.0,-999.0,77,0.00,,,0.00,Wunderground v.1.15,2013-01-04 00:33:00,
2013-01-03 19:39:00,7.0,1.6,29.99,SW,231,0.0,-999.0,78,0.00,,,0.00,Wunderground v.1.15,2013-01-04 00:39:00,
2013-01-03 19:44:00,6.7,1.3,29.99,SW,231,0.0,-999.0,78,0.00,,,0.00,Wunderground v.1.15,2013-01-04 00:44:00,
2013-01-03 19:49:00,6.1,1.0,30.00,SW,231,0.0,-999.0,79,0.00,,,0.00,Wunderground v.1.15,2013-01-04 00:49:00,
2013-01-03 19:54:00,5.8,1.0,30.00,SW,231,0.0,-999.0,80,0.00,,,0.00,Wunderground v.1.15,2013-01-04 00:54:00,
2013-01-03 20:00:00,5.6,0.5,30.00,SW,231,0.0,-999.0,79,0.00,,,0.00,Wunderground v.1.15,2013-01-04 01:00:00,
2013-01-03 20:06:00,5.4,0.3,29.99,SW,231,0.0,-999.0,79,0.00,,,0.00,Wunderground v.1.15,2013-01-04 01:06:00,
2013-01-03 20:11:00,5.2,0.1,29.99,SW,231,0.0,-999.0,79,0.00,,,0.00,Wunderground v.1.15,2013-01-04 01:11:00,
2013-01-03 20:16:00,5.1,0.3,29.99,SW,231,0.0,-999.0,80,0.00,,,0.00,Wunderground v.1.15,2013-01-04 01:16:00,
2013-01-03 20:21:00,4.9,0.1,29.99,SW,231,0.0,-999.0,80,0.00,,,0.00,Wunderground v.1.15,2013-01-04 01:21:00,
2013-01-03 20:28:00,5.0,0.4,29.99,SW,231,0.0,-999.0,81,0.00,,,0.00,Wunderground v.1.15,2013-01-04 01:28:00,
2013-01-03 20:33:00,5.1,0.5,29.99,SW,231,0.0,-999.0,81,0.00,,,0.00,Wunderground v.1.15,2013-01-04 01:33:00,
2013-01-03 20:39:00,5.3,0.5,29.99,SW,231,0.0,-999.0,80,0.00,,,0.00,Wunderground v.1.15,2013-01-04 01:39:00,
2013-01-03 20:45:00,5.7,0.9,29.99,SW,231,0.0,-999.0,80,0.00,,,0.00,Wunderground v.1.15,2013-01-04 01:45:00,
2013-01-03 20:50:00,5.8,0.7,29.98,SW,231,0.0,-999.0,79,0.00,,,0.00,Wunderground v.1.15,2013-01-04 01:50:00,
2013-01-03 20:57:00,5.8,1.0,29.99,SW,231,0.0,-999.0,80,0.00,,,0.00,Wunderground v.1.15,2013-01-04 01:57:00,
2013-01-03 21:03:00,5.9,0.8,29.98,SW,231,0.0,-999.0,79,0.00,,,0.00,Wunderground v.1.15,2013-01-04 02:03:00,
2013-01-03 21:09:00,5.9,0.5,29.98,SW,231,0.0,-999.0,78,0.00,,,0.00,Wunderground v.1.15,2013-01-04 02:09:00,
2013-01-03 21:15:00,6.2,0.5,29.98,SW,231,0.0,-999.0,77,0.00,,,0.00,Wunderground v.1.15,2013-01-04 02:15:00,
2013-01-03 21:21:00,6.0,0.6,29.98,SW,231,0.0,-999.0,78,0.00,,,0.00,Wunderground v.1.15,2013-01-04 02:21:00,
2013-01-03 21:27:00,6.0,0.6,29.98,SW,231,0.0,-999.0,78,0.00,,,0.00,Wunderground v.1.15,2013-01-04 02:27:00,
2013-01-03 21:33:00,5.8,0.7,29.98,SW,231,0.0,-999.0,79,0.00,,,0.00,Wunderground v.1.15,2013-01-04 02:33:00,
2013-01-03 21:38:00,5.6,0.2,29.98,SW,231,0.0,-999.0,78,0.00,,,0.00,Wunderground v.1.15,2013-01-04 02:38:00,
2013-01-03 21:43:00,5.4,0.0,29.98,SW,231,0.0,-999.0,78,0.00,,,0.00,Wunderground v.1.15,2013-01-04 02:43:00,
2013-01-03 21:48:00,5.1,0.0,29.98,SW,231,0.0,-999.0,79,0.00,,,0.00,Wunderground v.1.15,2013-01-04 02:48:00,
2013-01-03 21:54:00,5.2,0.4,29.98,SW,231,0.0,-999.0,80,0.00,,,0.00,Wunderground v.1.15,2013-01-04 02:54:00,
2013-01-03 21:59:00,5.2,0.1,29.97,SW,231,0.0,-999.0,79,0.00,,,0.00,Wunderground v.1.15,2013-01-04 02:59:00,
2013-01-03 22:05:00,4.9,-0.2,29.97,SW,231,0.0,-999.0,79,0.00,,,0.00,Wunderground v.1.15,2013-01-04 03:05:00,
2013-01-03 22:10:00,4.6,-0.2,29.97,SW,230,0.0,-999.0,80,0.00,,,0.00,Wunderground v.1.15,2013-01-04 03:10:00,
2013-01-03 22:16:00,4.4,-0.1,29.97,SW,231,0.0,-999.0,81,0.00,,,0.00,Wunderground v.1.15,2013-01-04 03:16:00,
2013-01-03 22:22:00,4.8,0.0,29.97,WSW,255,0.0,-999.0,80,0.00,,,0.00,Wunderground v.1.15,2013-01-04 03:22:00,
2013-01-03 22:28:00,5.1,0.0,29.97,WSW,255,0.0,-999.0,79,0.00,,,0.00,Wunderground v.1.15,2013-01-04 03:28:00,
2013-01-03 22:34:00,4.6,-0.2,29.97,WSW,255,0.0,-999.0,80,0.00,,,0.00,Wunderground v.1.15,2013-01-04 03:34:00,
2013-01-03 22:40:00,4.4,-0.1,29.97,WSW,254,0.0,-999.0,81,0.00,,,0.00,Wunderground v.1.15,2013-01-04 03:40:00,
2013-01-03 22:45:00,4.4,-0.1,29.97,WSW,255,0.0,-999.0,81,0.00,,,0.00,Wunderground v.1.15,2013-01-04 03:45:00,
2013-01-03 22:51:00,4.6,-0.2,29.97,WSW,255,0.0,-999.0,80,0.00,,,0.00,Wunderground v.1.15,2013-01-04 03:51:00,
2013-01-03 22:56:00,4.3,-0.5,29.97,WSW,255,0.0,-999.0,80,0.00,,,0.00,Wunderground v.1.15,2013-01-04 03:56:00,
2013-01-03 23:03:00,3.3,-1.2,29.97,WSW,255,0.0,-999.0,81,0.00,,,0.00,Wunderground v.1.15,2013-01-04 04:03:00,
2013-01-03 23:09:00,2.8,-1.4,29.96,WSW,254,0.0,-999.0,82,0.00,,,0.00,Wunderground v.1.15,2013-01-04 04:09:00,
2013-01-03 23:15:00,2.6,-1.4,29.95,WSW,253,0.0,-999.0,83,0.00,,,0.00,Wunderground v.1.15,2013-01-04 04:15:00,
2013-01-03 23:21:00,2.6,-1.4,29.95,WSW,255,0.0,-999.0,83,0.00,,,0.00,Wunderground v.1.15,2013-01-04 04:21:00,
2013-01-03 23:26:00,2.5,-1.2,29.95,WSW,253,0.0,-999.0,84,0.00,,,0.00,Wunderground v.1.15,2013-01-04 04:26:00,
2013-01-03 23:32:00,2.2,-1.8,29.94,WSW,255,0.0,-999.0,83,0.00,,,0.00,Wunderground v.1.15,2013-01-04 04:32:00,
2013-01-03 23:38:00,1.7,-2.0,29.94,WSW,253,0.0,-999.0,84,0.00,,,0.00,Wunderground v.1.15,2013-01-04 04:38:00,
2013-01-03 23:43:00,1.6,-2.1,29.94,WSW,253,0.0,-999.0,84,0.00,,,0.00,Wunderground v.1.15,2013-01-04 04:43:00,
2013-01-03 23:48:00,1.4,-2.1,29.94,WSW,255,0.0,-999.0,85,0.00,,,0.00,Wunderground v.1.15,2013-01-04 04:48:00,
2013-01-03 23:53:00,1.2,-2.3,29.94,WSW,253,0.0,-999.0,85,0.00,,,0.00,Wunderground v.1.15,2013-01-04 04:53:00,
2013-01-03 23:58:00,0.8,-2.7,29.94,WSW,255,0.0,-999.0,85,0.00,,,0.00,Wunderground v.1.15,2013-01-04 04:58:00,